sensor_id;sensor_type;location;lat;lon;timestamp;P1;durP1;ratioP1;P2;durP2;ratioP2
56537;SDS011;42435;53.292;6.000;2023-07-29T00:01:26;6.30;;;3.92;;
56537;SDS011;42435;53.292;6.000;2023-07-29T00:03:52;4.97;;;3.63;;
56537;SDS011;42435;53.292;6.000;2023-07-29T00:06:17;7.65;;;4.10;;
56537;SDS011;42435;53.292;6.000;2023-07-29T00:08:43;7.25;;;4.05;;
56537;SDS011;42435;53.292;6.000;2023-07-29T00:11:08;8.00;;;4.28;;
56537;SDS011;42435;53.292;6.000;2023-07-29T00:13:34;8.25;;;3.67;;
56537;SDS011;42435;53.292;6.000;2023-07-29T00:16:00;5.80;;;3.47;;
56537;SDS011;42435;53.292;6.000;2023-07-29T00:18:25;8.00;;;3.90;;
56537;SDS011;42435;53.292;6.000;2023-07-29T00:20:52;5.35;;;4.13;;
56537;SDS011;42435;53.292;6.000;2023-07-29T00:23:18;7.35;;;3.40;;
56537;SDS011;42435;53.292;6.000;2023-07-29T00:25:44;7.97;;;3.80;;
56537;SDS011;42435;53.292;6.000;2023-07-29T00:28:10;8.20;;;4.32;;
56537;SDS011;42435;53.292;6.000;2023-07-29T00:30:37;8.57;;;4.60;;
56537;SDS011;42435;53.292;6.000;2023-07-29T00:33:02;6.65;;;3.90;;
56537;SDS011;42435;53.292;6.000;2023-07-29T00:35:28;7.63;;;3.83;;
56537;SDS011;42435;53.292;6.000;2023-07-29T00:37:53;6.53;;;3.78;;
56537;SDS011;42435;53.292;6.000;2023-07-29T00:40:19;7.18;;;4.22;;
56537;SDS011;42435;53.292;6.000;2023-07-29T00:42:46;7.25;;;3.72;;
56537;SDS011;42435;53.292;6.000;2023-07-29T00:45:12;7.45;;;4.43;;
56537;SDS011;42435;53.292;6.000;2023-07-29T00:47:38;8.07;;;4.35;;
56537;SDS011;42435;53.292;6.000;2023-07-29T00:50:04;9.80;;;3.67;;
56537;SDS011;42435;53.292;6.000;2023-07-29T00:52:31;7.65;;;4.07;;
56537;SDS011;42435;53.292;6.000;2023-07-29T00:54:57;6.72;;;4.38;;
56537;SDS011;42435;53.292;6.000;2023-07-29T00:57:23;7.68;;;5.03;;
56537;SDS011;42435;53.292;6.000;2023-07-29T00:59:50;8.57;;;4.38;;
56537;SDS011;42435;53.292;6.000;2023-07-29T01:02:16;8.57;;;4.28;;
56537;SDS011;42435;53.292;6.000;2023-07-29T01:04:42;9.57;;;5.97;;
56537;SDS011;42435;53.292;6.000;2023-07-29T01:07:14;9.98;;;4.82;;
56537;SDS011;42435;53.292;6.000;2023-07-29T01:12:47;8.48;;;4.85;;
56537;SDS011;42435;53.292;6.000;2023-07-29T01:15:25;7.85;;;4.45;;
56537;SDS011;42435;53.292;6.000;2023-07-29T01:18:08;10.65;;;5.20;;
56537;SDS011;42435;53.292;6.000;2023-07-29T01:20:40;7.65;;;4.90;;
56537;SDS011;42435;53.292;6.000;2023-07-29T01:23:07;7.28;;;4.63;;
56537;SDS011;42435;53.292;6.000;2023-07-29T01:25:32;8.70;;;5.22;;
56537;SDS011;42435;53.292;6.000;2023-07-29T01:27:58;8.55;;;4.97;;
56537;SDS011;42435;53.292;6.000;2023-07-29T01:30:25;8.15;;;4.95;;
56537;SDS011;42435;53.292;6.000;2023-07-29T01:38:28;9.02;;;4.35;;
56537;SDS011;42435;53.292;6.000;2023-07-29T01:41:01;9.15;;;4.70;;
56537;SDS011;42435;53.292;6.000;2023-07-29T01:43:28;9.27;;;4.93;;
56537;SDS011;42435;53.292;6.000;2023-07-29T01:45:54;9.25;;;5.47;;
56537;SDS011;42435;53.292;6.000;2023-07-29T01:48:20;10.93;;;5.03;;
56537;SDS011;42435;53.292;6.000;2023-07-29T01:50:45;8.48;;;5.07;;
56537;SDS011;42435;53.292;6.000;2023-07-29T01:53:14;8.10;;;4.95;;
56537;SDS011;42435;53.292;6.000;2023-07-29T01:55:40;9.55;;;5.05;;
56537;SDS011;42435;53.292;6.000;2023-07-29T01:58:06;10.20;;;5.30;;
56537;SDS011;42435;53.292;6.000;2023-07-29T02:00:32;6.93;;;4.78;;
56537;SDS011;42435;53.292;6.000;2023-07-29T02:02:57;9.40;;;5.68;;
56537;SDS011;42435;53.292;6.000;2023-07-29T02:05:23;12.27;;;6.30;;
56537;SDS011;42435;53.292;6.000;2023-07-29T02:07:48;12.23;;;6.40;;
56537;SDS011;42435;53.292;6.000;2023-07-29T02:10:15;10.15;;;6.57;;
56537;SDS011;42435;53.292;6.000;2023-07-29T02:12:40;9.75;;;6.60;;
56537;SDS011;42435;53.292;6.000;2023-07-29T02:15:06;13.88;;;6.75;;
56537;SDS011;42435;53.292;6.000;2023-07-29T02:17:32;11.80;;;7.05;;
56537;SDS011;42435;53.292;6.000;2023-07-29T02:19:58;12.73;;;6.95;;
56537;SDS011;42435;53.292;6.000;2023-07-29T02:22:23;10.40;;;6.20;;
56537;SDS011;42435;53.292;6.000;2023-07-29T02:24:49;10.77;;;6.22;;
56537;SDS011;42435;53.292;6.000;2023-07-29T02:27:14;7.85;;;5.35;;
56537;SDS011;42435;53.292;6.000;2023-07-29T02:29:40;10.13;;;6.05;;
56537;SDS011;42435;53.292;6.000;2023-07-29T02:32:06;11.18;;;6.22;;
56537;SDS011;42435;53.292;6.000;2023-07-29T02:34:32;10.75;;;6.20;;
56537;SDS011;42435;53.292;6.000;2023-07-29T02:36:57;12.82;;;6.22;;
56537;SDS011;42435;53.292;6.000;2023-07-29T02:39:23;8.38;;;6.32;;
56537;SDS011;42435;53.292;6.000;2023-07-29T02:41:49;13.55;;;5.90;;
56537;SDS011;42435;53.292;6.000;2023-07-29T02:44:15;13.00;;;6.13;;
56537;SDS011;42435;53.292;6.000;2023-07-29T02:46:41;10.43;;;5.30;;
56537;SDS011;42435;53.292;6.000;2023-07-29T02:49:06;10.32;;;6.03;;
56537;SDS011;42435;53.292;6.000;2023-07-29T02:51:32;11.13;;;5.85;;
56537;SDS011;42435;53.292;6.000;2023-07-29T02:53:58;9.80;;;5.60;;
56537;SDS011;42435;53.292;6.000;2023-07-29T02:56:23;11.38;;;5.78;;
56537;SDS011;42435;53.292;6.000;2023-07-29T02:58:49;10.07;;;5.30;;
56537;SDS011;42435;53.292;6.000;2023-07-29T03:01:16;10.48;;;5.72;;
56537;SDS011;42435;53.292;6.000;2023-07-29T03:03:42;9.50;;;5.40;;
56537;SDS011;42435;53.292;6.000;2023-07-29T03:06:08;8.98;;;5.53;;
56537;SDS011;42435;53.292;6.000;2023-07-29T03:08:36;12.50;;;6.78;;
56537;SDS011;42435;53.292;6.000;2023-07-29T03:11:09;11.00;;;5.25;;
56537;SDS011;42435;53.292;6.000;2023-07-29T03:13:35;11.20;;;5.50;;
56537;SDS011;42435;53.292;6.000;2023-07-29T03:16:08;8.20;;;5.72;;
56537;SDS011;42435;53.292;6.000;2023-07-29T03:18:35;11.37;;;5.93;;
56537;SDS011;42435;53.292;6.000;2023-07-29T03:21:01;10.77;;;5.78;;
56537;SDS011;42435;53.292;6.000;2023-07-29T03:23:28;10.50;;;6.05;;
56537;SDS011;42435;53.292;6.000;2023-07-29T03:25:54;10.27;;;6.18;;
56537;SDS011;42435;53.292;6.000;2023-07-29T03:28:23;8.05;;;5.50;;
56537;SDS011;42435;53.292;6.000;2023-07-29T03:30:54;9.15;;;5.55;;
56537;SDS011;42435;53.292;6.000;2023-07-29T03:33:23;13.27;;;5.60;;
56537;SDS011;42435;53.292;6.000;2023-07-29T03:35:50;9.27;;;5.55;;
56537;SDS011;42435;53.292;6.000;2023-07-29T03:38:16;9.27;;;5.63;;
56537;SDS011;42435;53.292;6.000;2023-07-29T03:40:42;12.75;;;5.53;;
56537;SDS011;42435;53.292;6.000;2023-07-29T03:43:07;8.65;;;5.28;;
56537;SDS011;42435;53.292;6.000;2023-07-29T03:45:33;11.60;;;5.28;;
56537;SDS011;42435;53.292;6.000;2023-07-29T03:48:00;11.77;;;5.47;;
56537;SDS011;42435;53.292;6.000;2023-07-29T03:50:25;8.20;;;5.07;;
56537;SDS011;42435;53.292;6.000;2023-07-29T03:52:51;10.73;;;5.50;;
56537;SDS011;42435;53.292;6.000;2023-07-29T03:55:17;9.38;;;5.13;;
56537;SDS011;42435;53.292;6.000;2023-07-29T03:57:43;9.73;;;5.07;;
56537;SDS011;42435;53.292;6.000;2023-07-29T04:00:09;7.78;;;4.63;;
56537;SDS011;42435;53.292;6.000;2023-07-29T04:02:35;7.20;;;4.15;;
56537;SDS011;42435;53.292;6.000;2023-07-29T04:05:03;8.77;;;4.50;;
56537;SDS011;42435;53.292;6.000;2023-07-29T04:07:29;7.43;;;4.28;;
56537;SDS011;42435;53.292;6.000;2023-07-29T04:09:55;8.82;;;4.72;;
56537;SDS011;42435;53.292;6.000;2023-07-29T04:12:21;8.95;;;4.43;;
56537;SDS011;42435;53.292;6.000;2023-07-29T04:14:48;9.20;;;4.22;;
56537;SDS011;42435;53.292;6.000;2023-07-29T04:17:13;8.38;;;4.75;;
56537;SDS011;42435;53.292;6.000;2023-07-29T04:19:39;8.23;;;4.55;;
56537;SDS011;42435;53.292;6.000;2023-07-29T04:22:05;7.03;;;4.30;;
56537;SDS011;42435;53.292;6.000;2023-07-29T04:24:30;7.57;;;4.75;;
56537;SDS011;42435;53.292;6.000;2023-07-29T04:26:56;11.85;;;4.68;;
56537;SDS011;42435;53.292;6.000;2023-07-29T04:29:21;8.27;;;3.75;;
56537;SDS011;42435;53.292;6.000;2023-07-29T04:31:48;5.75;;;3.38;;
56537;SDS011;42435;53.292;6.000;2023-07-29T04:34:14;7.05;;;3.95;;
56537;SDS011;42435;53.292;6.000;2023-07-29T04:36:40;9.73;;;3.92;;
56537;SDS011;42435;53.292;6.000;2023-07-29T04:39:05;7.28;;;3.75;;
56537;SDS011;42435;53.292;6.000;2023-07-29T04:41:31;8.13;;;3.83;;
56537;SDS011;42435;53.292;6.000;2023-07-29T04:43:56;7.78;;;3.35;;
56537;SDS011;42435;53.292;6.000;2023-07-29T04:46:22;6.68;;;3.35;;
56537;SDS011;42435;53.292;6.000;2023-07-29T04:48:48;5.45;;;3.10;;
56537;SDS011;42435;53.292;6.000;2023-07-29T04:51:13;7.68;;;2.60;;
56537;SDS011;42435;53.292;6.000;2023-07-29T04:53:39;5.72;;;2.80;;
56537;SDS011;42435;53.292;6.000;2023-07-29T04:56:04;9.77;;;3.10;;
56537;SDS011;42435;53.292;6.000;2023-07-29T04:58:30;6.93;;;3.20;;
56537;SDS011;42435;53.292;6.000;2023-07-29T05:00:59;6.32;;;2.90;;
56537;SDS011;42435;53.292;6.000;2023-07-29T05:03:25;6.78;;;2.20;;
56537;SDS011;42435;53.292;6.000;2023-07-29T05:05:51;5.80;;;2.42;;
56537;SDS011;42435;53.292;6.000;2023-07-29T05:08:18;9.40;;;2.67;;
56537;SDS011;42435;53.292;6.000;2023-07-29T05:10:44;6.47;;;2.50;;
56537;SDS011;42435;53.292;6.000;2023-07-29T05:13:09;6.63;;;2.50;;
56537;SDS011;42435;53.292;6.000;2023-07-29T05:15:35;7.05;;;2.65;;
56537;SDS011;42435;53.292;6.000;2023-07-29T05:18:01;8.02;;;2.85;;
56537;SDS011;42435;53.292;6.000;2023-07-29T05:20:26;6.45;;;2.58;;
56537;SDS011;42435;53.292;6.000;2023-07-29T05:22:52;8.05;;;2.70;;
56537;SDS011;42435;53.292;6.000;2023-07-29T05:25:17;6.85;;;2.70;;
56537;SDS011;42435;53.292;6.000;2023-07-29T05:27:43;7.22;;;2.40;;
56537;SDS011;42435;53.292;6.000;2023-07-29T05:30:08;5.65;;;3.10;;
56537;SDS011;42435;53.292;6.000;2023-07-29T05:32:34;5.43;;;2.90;;
56537;SDS011;42435;53.292;6.000;2023-07-29T05:34:59;9.82;;;3.03;;
56537;SDS011;42435;53.292;6.000;2023-07-29T05:37:25;6.80;;;3.45;;
56537;SDS011;42435;53.292;6.000;2023-07-29T05:39:51;7.93;;;2.80;;
56537;SDS011;42435;53.292;6.000;2023-07-29T05:42:16;6.05;;;2.90;;
56537;SDS011;42435;53.292;6.000;2023-07-29T05:44:42;5.13;;;2.63;;
56537;SDS011;42435;53.292;6.000;2023-07-29T05:47:07;10.15;;;3.35;;
56537;SDS011;42435;53.292;6.000;2023-07-29T05:49:33;7.05;;;3.40;;
56537;SDS011;42435;53.292;6.000;2023-07-29T05:51:59;9.57;;;3.30;;
56537;SDS011;42435;53.292;6.000;2023-07-29T05:54:24;7.63;;;3.55;;
56537;SDS011;42435;53.292;6.000;2023-07-29T05:56:50;6.60;;;3.63;;
56537;SDS011;42435;53.292;6.000;2023-07-29T05:59:15;11.75;;;3.55;;
56537;SDS011;42435;53.292;6.000;2023-07-29T06:01:41;7.82;;;3.50;;
56537;SDS011;42435;53.292;6.000;2023-07-29T06:04:07;8.15;;;3.65;;
56537;SDS011;42435;53.292;6.000;2023-07-29T06:06:33;10.15;;;4.40;;
56537;SDS011;42435;53.292;6.000;2023-07-29T06:08:58;7.22;;;3.10;;
56537;SDS011;42435;53.292;6.000;2023-07-29T06:11:24;8.77;;;3.95;;
56537;SDS011;42435;53.292;6.000;2023-07-29T06:13:50;8.73;;;3.10;;
56537;SDS011;42435;53.292;6.000;2023-07-29T06:16:15;7.50;;;3.50;;
56537;SDS011;42435;53.292;6.000;2023-07-29T06:18:41;6.57;;;3.10;;
56537;SDS011;42435;53.292;6.000;2023-07-29T06:21:06;12.32;;;3.78;;
56537;SDS011;42435;53.292;6.000;2023-07-29T06:23:33;8.00;;;3.58;;
56537;SDS011;42435;53.292;6.000;2023-07-29T06:25:59;11.27;;;3.60;;
56537;SDS011;42435;53.292;6.000;2023-07-29T06:28:25;9.30;;;3.83;;
56537;SDS011;42435;53.292;6.000;2023-07-29T06:30:51;11.75;;;3.53;;
56537;SDS011;42435;53.292;6.000;2023-07-29T06:33:18;7.97;;;3.17;;
56537;SDS011;42435;53.292;6.000;2023-07-29T06:35:44;6.93;;;3.45;;
56537;SDS011;42435;53.292;6.000;2023-07-29T06:38:10;8.90;;;3.65;;
56537;SDS011;42435;53.292;6.000;2023-07-29T06:40:35;7.43;;;3.63;;
56537;SDS011;42435;53.292;6.000;2023-07-29T06:43:01;7.85;;;3.25;;
56537;SDS011;42435;53.292;6.000;2023-07-29T06:45:26;11.43;;;3.78;;
56537;SDS011;42435;53.292;6.000;2023-07-29T06:47:53;9.30;;;3.55;;
56537;SDS011;42435;53.292;6.000;2023-07-29T06:50:18;7.78;;;3.38;;
56537;SDS011;42435;53.292;6.000;2023-07-29T06:52:45;9.20;;;3.67;;
56537;SDS011;42435;53.292;6.000;2023-07-29T06:55:10;10.43;;;4.28;;
56537;SDS011;42435;53.292;6.000;2023-07-29T06:57:37;6.32;;;3.45;;
56537;SDS011;42435;53.292;6.000;2023-07-29T07:00:03;10.05;;;4.22;;
56537;SDS011;42435;53.292;6.000;2023-07-29T07:02:29;9.45;;;3.67;;
56537;SDS011;42435;53.292;6.000;2023-07-29T07:04:54;11.95;;;4.88;;
56537;SDS011;42435;53.292;6.000;2023-07-29T07:07:20;11.95;;;3.88;;
56537;SDS011;42435;53.292;6.000;2023-07-29T07:09:46;11.80;;;3.65;;
56537;SDS011;42435;53.292;6.000;2023-07-29T07:12:11;9.63;;;3.88;;
56537;SDS011;42435;53.292;6.000;2023-07-29T07:14:37;8.15;;;3.72;;
56537;SDS011;42435;53.292;6.000;2023-07-29T07:17:03;9.85;;;3.72;;
56537;SDS011;42435;53.292;6.000;2023-07-29T07:19:28;8.07;;;3.15;;
56537;SDS011;42435;53.292;6.000;2023-07-29T07:21:54;7.40;;;3.65;;
56537;SDS011;42435;53.292;6.000;2023-07-29T07:24:19;8.93;;;3.35;;
56537;SDS011;42435;53.292;6.000;2023-07-29T07:26:45;9.95;;;3.50;;
56537;SDS011;42435;53.292;6.000;2023-07-29T07:29:10;7.95;;;3.80;;
56537;SDS011;42435;53.292;6.000;2023-07-29T07:31:36;12.15;;;3.45;;
56537;SDS011;42435;53.292;6.000;2023-07-29T07:34:01;7.88;;;3.42;;
56537;SDS011;42435;53.292;6.000;2023-07-29T07:36:27;8.30;;;3.47;;
56537;SDS011;42435;53.292;6.000;2023-07-29T07:38:53;8.52;;;3.53;;
56537;SDS011;42435;53.292;6.000;2023-07-29T07:41:19;9.70;;;3.60;;
56537;SDS011;42435;53.292;6.000;2023-07-29T07:43:45;8.07;;;3.35;;
56537;SDS011;42435;53.292;6.000;2023-07-29T07:46:10;6.68;;;3.17;;
56537;SDS011;42435;53.292;6.000;2023-07-29T07:48:36;11.13;;;3.20;;
56537;SDS011;42435;53.292;6.000;2023-07-29T07:51:09;9.48;;;3.53;;
56537;SDS011;42435;53.292;6.000;2023-07-29T07:53:38;5.35;;;3.38;;
56537;SDS011;42435;53.292;6.000;2023-07-29T07:56:05;8.65;;;3.35;;
56537;SDS011;42435;53.292;6.000;2023-07-29T07:58:31;9.35;;;3.22;;
56537;SDS011;42435;53.292;6.000;2023-07-29T08:01:03;7.50;;;3.17;;
56537;SDS011;42435;53.292;6.000;2023-07-29T08:03:33;5.10;;;3.33;;
56537;SDS011;42435;53.292;6.000;2023-07-29T08:05:59;6.45;;;2.50;;
56537;SDS011;42435;53.292;6.000;2023-07-29T08:08:25;4.38;;;2.47;;
56537;SDS011;42435;53.292;6.000;2023-07-29T08:10:52;8.95;;;2.70;;
56537;SDS011;42435;53.292;6.000;2023-07-29T08:13:19;7.00;;;2.80;;
56537;SDS011;42435;53.292;6.000;2023-07-29T08:15:48;6.55;;;2.38;;
56537;SDS011;42435;53.292;6.000;2023-07-29T08:18:14;8.13;;;2.88;;
56537;SDS011;42435;53.292;6.000;2023-07-29T08:20:40;6.45;;;2.50;;
56537;SDS011;42435;53.292;6.000;2023-07-29T08:23:06;6.45;;;2.63;;
56537;SDS011;42435;53.292;6.000;2023-07-29T08:25:31;6.30;;;2.90;;
56537;SDS011;42435;53.292;6.000;2023-07-29T08:27:57;7.57;;;2.35;;
56537;SDS011;42435;53.292;6.000;2023-07-29T08:30:22;5.93;;;2.65;;
56537;SDS011;42435;53.292;6.000;2023-07-29T08:32:48;4.80;;;2.05;;
56537;SDS011;42435;53.292;6.000;2023-07-29T08:35:14;7.28;;;2.63;;
56537;SDS011;42435;53.292;6.000;2023-07-29T08:37:39;7.30;;;2.50;;
56537;SDS011;42435;53.292;6.000;2023-07-29T08:40:05;6.53;;;2.40;;
56537;SDS011;42435;53.292;6.000;2023-07-29T08:42:32;7.50;;;2.45;;
56537;SDS011;42435;53.292;6.000;2023-07-29T08:45:01;6.47;;;2.40;;
56537;SDS011;42435;53.292;6.000;2023-07-29T08:47:32;6.20;;;2.72;;
56537;SDS011;42435;53.292;6.000;2023-07-29T08:49:58;5.38;;;2.60;;
56537;SDS011;42435;53.292;6.000;2023-07-29T08:52:26;6.55;;;2.00;;
56537;SDS011;42435;53.292;6.000;2023-07-29T08:54:52;6.93;;;2.15;;
56537;SDS011;42435;53.292;6.000;2023-07-29T08:57:18;7.75;;;2.30;;
56537;SDS011;42435;53.292;6.000;2023-07-29T08:59:45;5.20;;;2.35;;
56537;SDS011;42435;53.292;6.000;2023-07-29T09:02:11;5.70;;;2.03;;
56537;SDS011;42435;53.292;6.000;2023-07-29T09:04:37;5.15;;;2.13;;
56537;SDS011;42435;53.292;6.000;2023-07-29T09:07:02;3.85;;;1.70;;
56537;SDS011;42435;53.292;6.000;2023-07-29T09:09:30;7.32;;;2.00;;
56537;SDS011;42435;53.292;6.000;2023-07-29T09:11:55;5.63;;;2.00;;
56537;SDS011;42435;53.292;6.000;2023-07-29T09:14:23;4.35;;;1.52;;
56537;SDS011;42435;53.292;6.000;2023-07-29T09:16:49;4.00;;;2.00;;
56537;SDS011;42435;53.292;6.000;2023-07-29T09:19:14;6.57;;;2.10;;
56537;SDS011;42435;53.292;6.000;2023-07-29T09:21:40;4.55;;;2.03;;
56537;SDS011;42435;53.292;6.000;2023-07-29T09:24:07;3.72;;;1.50;;
56537;SDS011;42435;53.292;6.000;2023-07-29T09:26:33;3.92;;;1.90;;
56537;SDS011;42435;53.292;6.000;2023-07-29T09:28:59;4.57;;;1.52;;
56537;SDS011;42435;53.292;6.000;2023-07-29T09:31:26;4.85;;;2.03;;
56537;SDS011;42435;53.292;6.000;2023-07-29T09:33:56;5.28;;;1.58;;
56537;SDS011;42435;53.292;6.000;2023-07-29T09:36:26;4.07;;;1.92;;
56537;SDS011;42435;53.292;6.000;2023-07-29T09:38:56;5.55;;;1.40;;
56537;SDS011;42435;53.292;6.000;2023-07-29T09:41:25;2.88;;;1.20;;
56537;SDS011;42435;53.292;6.000;2023-07-29T09:43:55;4.05;;;1.48;;
56537;SDS011;42435;53.292;6.000;2023-07-29T09:46:25;3.65;;;1.75;;
56537;SDS011;42435;53.292;6.000;2023-07-29T09:48:56;3.50;;;2.22;;
56537;SDS011;42435;53.292;6.000;2023-07-29T09:51:22;6.15;;;1.80;;
56537;SDS011;42435;53.292;6.000;2023-07-29T09:53:49;3.58;;;1.48;;
56537;SDS011;42435;53.292;6.000;2023-07-29T09:56:16;5.13;;;1.77;;
56537;SDS011;42435;53.292;6.000;2023-07-29T09:58:45;4.75;;;2.10;;
56537;SDS011;42435;53.292;6.000;2023-07-29T10:01:11;8.93;;;2.72;;
56537;SDS011;42435;53.292;6.000;2023-07-29T10:03:36;3.70;;;1.80;;
56537;SDS011;42435;53.292;6.000;2023-07-29T10:06:03;4.10;;;1.95;;
56537;SDS011;42435;53.292;6.000;2023-07-29T10:08:30;4.00;;;1.90;;
56537;SDS011;42435;53.292;6.000;2023-07-29T10:11:06;5.13;;;1.90;;
56537;SDS011;42435;53.292;6.000;2023-07-29T10:13:32;3.42;;;1.60;;
56537;SDS011;42435;53.292;6.000;2023-07-29T10:15:59;6.20;;;1.75;;
56537;SDS011;42435;53.292;6.000;2023-07-29T10:18:27;4.95;;;2.15;;
56537;SDS011;42435;53.292;6.000;2023-07-29T10:20:54;4.72;;;2.10;;
56537;SDS011;42435;53.292;6.000;2023-07-29T10:23:26;2.65;;;1.63;;
56537;SDS011;42435;53.292;6.000;2023-07-29T10:26:02;4.25;;;1.73;;
56537;SDS011;42435;53.292;6.000;2023-07-29T10:28:30;6.18;;;1.70;;
56537;SDS011;42435;53.292;6.000;2023-07-29T10:30:57;2.75;;;1.63;;
56537;SDS011;42435;53.292;6.000;2023-07-29T10:33:24;5.05;;;1.60;;
56537;SDS011;42435;53.292;6.000;2023-07-29T10:35:50;5.72;;;2.53;;
56537;SDS011;42435;53.292;6.000;2023-07-29T10:38:18;3.03;;;1.85;;
56537;SDS011;42435;53.292;6.000;2023-07-29T10:40:56;6.97;;;2.50;;
56537;SDS011;42435;53.292;6.000;2023-07-29T10:43:25;5.97;;;2.13;;
56537;SDS011;42435;53.292;6.000;2023-07-29T10:45:53;5.03;;;2.55;;
56537;SDS011;42435;53.292;6.000;2023-07-29T10:53:58;3.45;;;2.92;;
56537;SDS011;42435;53.292;6.000;2023-07-29T10:56:32;2.97;;;2.10;;
56537;SDS011;42435;53.292;6.000;2023-07-29T11:01:51;4.60;;;1.65;;
56537;SDS011;42435;53.292;6.000;2023-07-29T11:04:31;3.47;;;1.25;;
56537;SDS011;42435;53.292;6.000;2023-07-29T11:17:36;5.43;;;2.00;;
56537;SDS011;42435;53.292;6.000;2023-07-29T11:20:06;2.83;;;1.20;;
56537;SDS011;42435;53.292;6.000;2023-07-29T11:22:33;3.35;;;1.33;;
56537;SDS011;42435;53.292;6.000;2023-07-29T11:24:59;5.82;;;1.48;;
56537;SDS011;42435;53.292;6.000;2023-07-29T11:27:25;3.88;;;1.58;;
56537;SDS011;42435;53.292;6.000;2023-07-29T11:29:50;2.72;;;1.58;;
56537;SDS011;42435;53.292;6.000;2023-07-29T11:34:50;3.13;;;1.73;;
56537;SDS011;42435;53.292;6.000;2023-07-29T11:37:16;2.67;;;1.70;;
56537;SDS011;42435;53.292;6.000;2023-07-29T11:39:43;2.88;;;1.40;;
56537;SDS011;42435;53.292;6.000;2023-07-29T11:42:13;2.70;;;1.10;;
56537;SDS011;42435;53.292;6.000;2023-07-29T11:44:39;2.33;;;1.20;;
56537;SDS011;42435;53.292;6.000;2023-07-29T11:47:06;2.40;;;1.15;;
56537;SDS011;42435;53.292;6.000;2023-07-29T11:49:33;3.33;;;1.00;;
56537;SDS011;42435;53.292;6.000;2023-07-29T11:51:59;3.53;;;1.13;;
56537;SDS011;42435;53.292;6.000;2023-07-29T11:54:26;5.05;;;1.58;;
56537;SDS011;42435;53.292;6.000;2023-07-29T11:56:51;3.85;;;1.40;;
56537;SDS011;42435;53.292;6.000;2023-07-29T11:59:17;3.78;;;1.40;;
56537;SDS011;42435;53.292;6.000;2023-07-29T12:01:43;2.20;;;1.10;;
56537;SDS011;42435;53.292;6.000;2023-07-29T12:04:08;2.50;;;1.38;;
56537;SDS011;42435;53.292;6.000;2023-07-29T12:06:34;3.17;;;1.40;;
56537;SDS011;42435;53.292;6.000;2023-07-29T12:09:01;2.80;;;1.70;;
56537;SDS011;42435;53.292;6.000;2023-07-29T12:11:26;3.40;;;1.77;;
56537;SDS011;42435;53.292;6.000;2023-07-29T12:13:55;3.63;;;1.73;;
56537;SDS011;42435;53.292;6.000;2023-07-29T12:16:21;2.88;;;1.40;;
56537;SDS011;42435;53.292;6.000;2023-07-29T12:18:46;5.25;;;1.60;;
56537;SDS011;42435;53.292;6.000;2023-07-29T12:21:14;3.80;;;1.33;;
56537;SDS011;42435;53.292;6.000;2023-07-29T12:23:40;3.38;;;1.20;;
56537;SDS011;42435;53.292;6.000;2023-07-29T12:26:05;2.97;;;1.38;;
56537;SDS011;42435;53.292;6.000;2023-07-29T12:28:31;4.45;;;1.40;;
56537;SDS011;42435;53.292;6.000;2023-07-29T12:30:57;2.40;;;1.05;;
56537;SDS011;42435;53.292;6.000;2023-07-29T12:33:29;4.43;;;1.52;;
56537;SDS011;42435;53.292;6.000;2023-07-29T12:35:59;4.57;;;1.70;;
56537;SDS011;42435;53.292;6.000;2023-07-29T12:38:28;4.50;;;1.70;;
56537;SDS011;42435;53.292;6.000;2023-07-29T12:40:54;2.83;;;1.55;;
56537;SDS011;42435;53.292;6.000;2023-07-29T12:43:20;4.55;;;2.15;;
56537;SDS011;42435;53.292;6.000;2023-07-29T12:45:50;5.00;;;1.33;;
56537;SDS011;42435;53.292;6.000;2023-07-29T12:48:18;7.25;;;1.60;;
56537;SDS011;42435;53.292;6.000;2023-07-29T12:50:44;5.25;;;1.63;;
56537;SDS011;42435;53.292;6.000;2023-07-29T12:53:11;4.07;;;1.75;;
56537;SDS011;42435;53.292;6.000;2023-07-29T12:55:36;3.17;;;1.60;;
56537;SDS011;42435;53.292;6.000;2023-07-29T12:58:02;7.07;;;1.92;;
56537;SDS011;42435;53.292;6.000;2023-07-29T13:00:28;3.92;;;1.88;;
56537;SDS011;42435;53.292;6.000;2023-07-29T13:02:54;4.95;;;1.90;;
56537;SDS011;42435;53.292;6.000;2023-07-29T13:05:19;3.85;;;1.63;;
56537;SDS011;42435;53.292;6.000;2023-07-29T13:07:45;4.10;;;1.75;;
56537;SDS011;42435;53.292;6.000;2023-07-29T13:10:11;4.25;;;1.42;;
56537;SDS011;42435;53.292;6.000;2023-07-29T13:12:37;5.82;;;1.80;;
56537;SDS011;42435;53.292;6.000;2023-07-29T13:15:03;3.83;;;1.60;;
56537;SDS011;42435;53.292;6.000;2023-07-29T13:17:30;5.97;;;2.28;;
56537;SDS011;42435;53.292;6.000;2023-07-29T13:19:55;4.93;;;1.75;;
56537;SDS011;42435;53.292;6.000;2023-07-29T13:22:21;3.92;;;1.70;;
56537;SDS011;42435;53.292;6.000;2023-07-29T13:24:46;2.75;;;1.52;;
56537;SDS011;42435;53.292;6.000;2023-07-29T13:27:12;3.10;;;1.48;;
56537;SDS011;42435;53.292;6.000;2023-07-29T13:29:38;5.35;;;1.50;;
56537;SDS011;42435;53.292;6.000;2023-07-29T13:32:04;3.60;;;1.70;;
56537;SDS011;42435;53.292;6.000;2023-07-29T13:34:30;3.85;;;1.70;;
56537;SDS011;42435;53.292;6.000;2023-07-29T13:36:56;3.53;;;1.73;;
56537;SDS011;42435;53.292;6.000;2023-07-29T13:39:22;4.45;;;1.70;;
56537;SDS011;42435;53.292;6.000;2023-07-29T13:41:47;4.93;;;2.13;;
56537;SDS011;42435;53.292;6.000;2023-07-29T13:44:13;3.58;;;1.70;;
56537;SDS011;42435;53.292;6.000;2023-07-29T13:46:38;7.88;;;1.80;;
56537;SDS011;42435;53.292;6.000;2023-07-29T13:49:04;4.65;;;1.67;;
56537;SDS011;42435;53.292;6.000;2023-07-29T13:51:30;5.50;;;2.30;;
56537;SDS011;42435;53.292;6.000;2023-07-29T13:53:55;6.15;;;2.17;;
56537;SDS011;42435;53.292;6.000;2023-07-29T13:56:21;6.53;;;2.10;;
56537;SDS011;42435;53.292;6.000;2023-07-29T13:58:47;5.70;;;1.85;;
56537;SDS011;42435;53.292;6.000;2023-07-29T14:01:13;8.18;;;2.38;;
56537;SDS011;42435;53.292;6.000;2023-07-29T14:03:41;6.35;;;1.95;;
56537;SDS011;42435;53.292;6.000;2023-07-29T14:06:06;6.10;;;2.50;;
56537;SDS011;42435;53.292;6.000;2023-07-29T14:08:32;4.10;;;1.88;;
56537;SDS011;42435;53.292;6.000;2023-07-29T14:10:57;3.83;;;1.60;;
56537;SDS011;42435;53.292;6.000;2023-07-29T14:13:23;4.15;;;2.10;;
56537;SDS011;42435;53.292;6.000;2023-07-29T14:15:49;4.47;;;1.77;;
56537;SDS011;42435;53.292;6.000;2023-07-29T14:18:14;5.82;;;2.00;;
56537;SDS011;42435;53.292;6.000;2023-07-29T14:20:40;4.50;;;2.15;;
56537;SDS011;42435;53.292;6.000;2023-07-29T14:23:06;7.28;;;2.45;;
56537;SDS011;42435;53.292;6.000;2023-07-29T14:25:31;3.50;;;2.08;;
56537;SDS011;42435;53.292;6.000;2023-07-29T14:27:57;5.40;;;1.70;;
56537;SDS011;42435;53.292;6.000;2023-07-29T14:30:22;4.57;;;2.00;;
56537;SDS011;42435;53.292;6.000;2023-07-29T14:32:48;5.35;;;1.80;;
56537;SDS011;42435;53.292;6.000;2023-07-29T14:35:13;3.88;;;1.58;;
56537;SDS011;42435;53.292;6.000;2023-07-29T14:37:42;4.78;;;1.70;;
56537;SDS011;42435;53.292;6.000;2023-07-29T14:40:07;2.90;;;1.30;;
56537;SDS011;42435;53.292;6.000;2023-07-29T14:42:33;5.38;;;1.38;;
56537;SDS011;42435;53.292;6.000;2023-07-29T14:44:58;2.53;;;1.23;;
56537;SDS011;42435;53.292;6.000;2023-07-29T14:47:24;3.80;;;1.38;;
56537;SDS011;42435;53.292;6.000;2023-07-29T14:49:50;1.45;;;1.08;;
56537;SDS011;42435;53.292;6.000;2023-07-29T14:52:15;2.30;;;1.17;;
56537;SDS011;42435;53.292;6.000;2023-07-29T14:54:41;1.92;;;1.20;;
56537;SDS011;42435;53.292;6.000;2023-07-29T14:57:06;3.20;;;1.10;;
56537;SDS011;42435;53.292;6.000;2023-07-29T14:59:32;4.50;;;1.23;;
56537;SDS011;42435;53.292;6.000;2023-07-29T15:01:58;1.75;;;1.02;;
56537;SDS011;42435;53.292;6.000;2023-07-29T15:04:24;2.90;;;1.20;;
56537;SDS011;42435;53.292;6.000;2023-07-29T15:06:49;3.50;;;1.05;;
56537;SDS011;42435;53.292;6.000;2023-07-29T15:09:15;3.58;;;1.00;;
56537;SDS011;42435;53.292;6.000;2023-07-29T15:11:40;3.53;;;0.90;;